sensor_id;sensor_type;location;lat;lon;timestamp;pressure;altitude;pressure_sealevel;temperature;humidity
70909;BME280;58554;52.006;5.926;2022-10-16T00:01:06;100136.41;;;15.07;66.35
70909;BME280;58554;52.006;5.926;2022-10-16T00:03:34;100142.88;;;15.04;66.59
70909;BME280;58554;52.006;5.926;2022-10-16T00:06:04;100140.03;;;15.06;66.59
70909;BME280;58554;52.006;5.926;2022-10-16T00:08:31;100142.47;;;15.09;66.54
70909;BME280;58554;52.006;5.926;2022-10-16T00:11:03;100145.25;;;15.07;66.43
70909;BME280;58554;52.006;5.926;2022-10-16T00:13:33;100134.72;;;15.06;66.44
70909;BME280;58554;52.006;5.926;2022-10-16T00:16:01;100138.09;;;15.08;66.36
70909;BME280;58554;52.006;5.926;2022-10-16T00:18:29;100149.06;;;15.14;66.17
70909;BME280;58554;52.006;5.926;2022-10-16T00:21:04;100134.19;;;15.12;66.28
70909;BME280;58554;52.006;5.926;2022-10-16T00:23:34;100133.47;;;15.10;65.93
70909;BME280;58554;52.006;5.926;2022-10-16T00:26:03;100146.09;;;15.08;66.08
70909;BME280;58554;52.006;5.926;2022-10-16T00:28:32;100142.59;;;15.07;66.08
70909;BME280;58554;52.006;5.926;2022-10-16T00:31:02;100139.22;;;15.05;66.23
70909;BME280;58554;52.006;5.926;2022-10-16T00:33:30;100131.34;;;15.04;66.32
70909;BME280;58554;52.006;5.926;2022-10-16T00:35:57;100135.19;;;15.11;66.34
70909;BME280;58554;52.006;5.926;2022-10-16T00:38:26;100144.19;;;15.19;66.42
70909;BME280;58554;52.006;5.926;2022-10-16T00:40:53;100144.63;;;15.25;66.40
70909;BME280;58554;52.006;5.926;2022-10-16T00:43:37;100146.63;;;15.32;66.10
70909;BME280;58554;52.006;5.926;2022-10-16T00:46:11;100144.94;;;15.31;66.01
70909;BME280;58554;52.006;5.926;2022-10-16T00:48:43;100145.31;;;15.27;65.89
70909;BME280;58554;52.006;5.926;2022-10-16T00:51:15;100144.78;;;15.23;65.93
70909;BME280;58554;52.006;5.926;2022-10-16T00:53:46;100148.53;;;15.21;66.05
70909;BME280;58554;52.006;5.926;2022-10-16T00:56:14;100145.31;;;15.17;66.00
70909;BME280;58554;52.006;5.926;2022-10-16T00:58:41;100143.16;;;15.11;66.10
70909;BME280;58554;52.006;5.926;2022-10-16T01:01:07;100143.41;;;15.08;66.27
70909;BME280;58554;52.006;5.926;2022-10-16T01:03:36;100140.31;;;15.03;66.38
70909;BME280;58554;52.006;5.926;2022-10-16T01:06:14;100147.84;;;14.97;66.26
70909;BME280;58554;52.006;5.926;2022-10-16T01:09:02;100144.75;;;14.92;66.63
70909;BME280;58554;52.006;5.926;2022-10-16T01:11:44;100146.69;;;14.90;66.58
70909;BME280;58554;52.006;5.926;2022-10-16T01:14:26;100149.47;;;14.89;66.76
70909;BME280;58554;52.006;5.926;2022-10-16T01:17:05;100153.13;;;14.88;66.85
70909;BME280;58554;52.006;5.926;2022-10-16T01:19:53;100151.44;;;14.87;66.84
70909;BME280;58554;52.006;5.926;2022-10-16T01:22:36;100152.53;;;14.84;66.88
70909;BME280;58554;52.006;5.926;2022-10-16T01:25:18;100144.81;;;14.81;66.91
70909;BME280;58554;52.006;5.926;2022-10-16T01:27:59;100138.75;;;14.79;67.07
70909;BME280;58554;52.006;5.926;2022-10-16T01:30:31;100140.47;;;14.80;67.09
70909;BME280;58554;52.006;5.926;2022-10-16T01:33:03;100138.75;;;14.79;67.23
70909;BME280;58554;52.006;5.926;2022-10-16T01:35:38;100139.47;;;14.81;67.14
70909;BME280;58554;52.006;5.926;2022-10-16T01:38:12;100138.75;;;14.79;67.30
70909;BME280;58554;52.006;5.926;2022-10-16T01:40:47;100141.44;;;14.79;67.34
70909;BME280;58554;52.006;5.926;2022-10-16T01:43:22;100141.31;;;14.81;67.48
70909;BME280;58554;52.006;5.926;2022-10-16T01:45:54;100142.16;;;14.81;67.27
70909;BME280;58554;52.006;5.926;2022-10-16T01:48:22;100136.09;;;14.79;67.46
70909;BME280;58554;52.006;5.926;2022-10-16T01:50:55;100143.38;;;14.77;67.58
70909;BME280;58554;52.006;5.926;2022-10-16T01:53:26;100141.97;;;14.73;67.62
70909;BME280;58554;52.006;5.926;2022-10-16T01:55:55;100135.03;;;14.70;67.70
70909;BME280;58554;52.006;5.926;2022-10-16T01:58:27;100139.81;;;14.67;67.89
70909;BME280;58554;52.006;5.926;2022-10-16T02:00:59;100144.13;;;14.68;67.97
70909;BME280;58554;52.006;5.926;2022-10-16T02:03:27;100160.94;;;14.68;68.02
70909;BME280;58554;52.006;5.926;2022-10-16T02:05:56;100160.94;;;14.68;68.06
70909;BME280;58554;52.006;5.926;2022-10-16T02:08:27;100146.91;;;14.66;68.25
70909;BME280;58554;52.006;5.926;2022-10-16T02:10:56;100137.97;;;14.67;68.28
70909;BME280;58554;52.006;5.926;2022-10-16T02:13:30;100137.00;;;14.68;68.29
70909;BME280;58554;52.006;5.926;2022-10-16T02:15:59;100133.50;;;14.68;68.40
70909;BME280;58554;52.006;5.926;2022-10-16T02:18:26;100154.91;;;14.66;68.28
70909;BME280;58554;52.006;5.926;2022-10-16T02:20:57;100147.91;;;14.65;68.34
70909;BME280;58554;52.006;5.926;2022-10-16T02:23:35;100147.78;;;14.67;68.41
70909;BME280;58554;52.006;5.926;2022-10-16T02:26:13;100148.50;;;14.69;68.32
70909;BME280;58554;52.006;5.926;2022-10-16T02:28:55;100144.97;;;14.68;68.53
70909;BME280;58554;52.006;5.926;2022-10-16T02:31:31;100153.94;;;14.67;68.59
70909;BME280;58554;52.006;5.926;2022-10-16T02:34:03;100146.09;;;14.66;68.54
70909;BME280;58554;52.006;5.926;2022-10-16T02:36:34;100147.19;;;14.63;68.60
70909;BME280;58554;52.006;5.926;2022-10-16T02:39:03;100152.63;;;14.62;68.58
70909;BME280;58554;52.006;5.926;2022-10-16T02:41:32;100150.25;;;14.58;68.60
70909;BME280;58554;52.006;5.926;2022-10-16T02:44:01;100159.19;;;14.57;68.74
70909;BME280;58554;52.006;5.926;2022-10-16T02:46:28;100147.81;;;14.55;68.69
70909;BME280;58554;52.006;5.926;2022-10-16T02:48:54;100154.13;;;14.54;68.72
70909;BME280;58554;52.006;5.926;2022-10-16T02:51:21;100156.22;;;14.51;68.93
70909;BME280;58554;52.006;5.926;2022-10-16T02:53:47;100150.16;;;14.49;68.91
70909;BME280;58554;52.006;5.926;2022-10-16T02:56:14;100148.63;;;14.46;68.91
70909;BME280;58554;52.006;5.926;2022-10-16T02:58:40;100155.88;;;14.44;68.98
70909;BME280;58554;52.006;5.926;2022-10-16T03:01:09;100169.19;;;14.44;69.04
70909;BME280;58554;52.006;5.926;2022-10-16T03:03:36;100170.13;;;14.43;69.07
70909;BME280;58554;52.006;5.926;2022-10-16T03:06:03;100169.56;;;14.40;69.14
70909;BME280;58554;52.006;5.926;2022-10-16T03:08:29;100157.34;;;14.37;69.34
70909;BME280;58554;52.006;5.926;2022-10-16T03:10:56;100161.09;;;14.34;69.29
70909;BME280;58554;52.006;5.926;2022-10-16T03:13:22;100157.63;;;14.34;69.49
70909;BME280;58554;52.006;5.926;2022-10-16T03:15:48;100146.84;;;14.35;69.53
70909;BME280;58554;52.006;5.926;2022-10-16T03:18:18;100145.03;;;14.36;69.53
70909;BME280;58554;52.006;5.926;2022-10-16T03:20:44;100152.28;;;14.34;69.50
70909;BME280;58554;52.006;5.926;2022-10-16T03:23:11;100157.63;;;14.34;69.77
70909;BME280;58554;52.006;5.926;2022-10-16T03:25:38;100160.28;;;14.34;69.59
70909;BME280;58554;52.006;5.926;2022-10-16T03:28:05;100168.25;;;14.34;69.67
70909;BME280;58554;52.006;5.926;2022-10-16T03:30:31;100169.94;;;14.35;69.63
70909;BME280;58554;52.006;5.926;2022-10-16T03:32:58;100171.88;;;14.33;69.62
70909;BME280;58554;52.006;5.926;2022-10-16T03:35:27;100161.38;;;14.31;69.49
70909;BME280;58554;52.006;5.926;2022-10-16T03:37:53;100155.19;;;14.31;69.74
70909;BME280;58554;52.006;5.926;2022-10-16T03:40:20;100166.69;;;14.31;69.86
70909;BME280;58554;52.006;5.926;2022-10-16T03:42:46;100167.53;;;14.32;69.83
70909;BME280;58554;52.006;5.926;2022-10-16T03:45:13;100175.41;;;14.33;69.73
70909;BME280;58554;52.006;5.926;2022-10-16T03:47:39;100178.88;;;14.34;69.64
70909;BME280;58554;52.006;5.926;2022-10-16T03:50:07;100180.56;;;14.35;69.60
70909;BME280;58554;52.006;5.926;2022-10-16T03:52:36;100179.59;;;14.36;69.63
70909;BME280;58554;52.006;5.926;2022-10-16T03:55:04;100188.53;;;14.35;69.64
70909;BME280;58554;52.006;5.926;2022-10-16T03:57:31;100182.50;;;14.33;69.69
70909;BME280;58554;52.006;5.926;2022-10-16T03:59:58;100178.06;;;14.33;69.79
70909;BME280;58554;52.006;5.926;2022-10-16T04:02:25;100171.88;;;14.33;69.74
70909;BME280;58554;52.006;5.926;2022-10-16T04:04:51;100174.53;;;14.33;69.85
70909;BME280;58554;52.006;5.926;2022-10-16T04:07:18;100188.53;;;14.35;69.71
70909;BME280;58554;52.006;5.926;2022-10-16T04:09:47;100182.28;;;14.36;69.70
70909;BME280;58554;52.006;5.926;2022-10-16T04:12:13;100193.88;;;14.35;69.75
70909;BME280;58554;52.006;5.926;2022-10-16T04:14:40;100194.84;;;14.34;69.61
70909;BME280;58554;52.006;5.926;2022-10-16T04:17:06;100199.06;;;14.36;69.75
70909;BME280;58554;52.006;5.926;2022-10-16T04:19:33;100204.25;;;14.38;69.70
70909;BME280;58554;52.006;5.926;2022-10-16T04:21:59;100207.66;;;14.40;69.75
70909;BME280;58554;52.006;5.926;2022-10-16T04:24:26;100219.13;;;14.41;69.77
70909;BME280;58554;52.006;5.926;2022-10-16T04:26:55;100219.97;;;14.41;69.67
70909;BME280;58554;52.006;5.926;2022-10-16T04:29:21;100225.16;;;14.43;69.62
70909;BME280;58554;52.006;5.926;2022-10-16T04:31:47;100224.44;;;14.41;69.73
70909;BME280;58554;52.006;5.926;2022-10-16T04:34:14;100234.25;;;14.40;69.64
70909;BME280;58554;52.006;5.926;2022-10-16T04:36:40;100235.34;;;14.37;69.81
70909;BME280;58554;52.006;5.926;2022-10-16T04:39:07;100226.66;;;14.35;69.80
70909;BME280;58554;52.006;5.926;2022-10-16T04:41:33;100241.75;;;14.35;69.96
70909;BME280;58554;52.006;5.926;2022-10-16T04:44:02;100241.75;;;14.35;69.82
70909;BME280;58554;52.006;5.926;2022-10-16T04:46:28;100239.06;;;14.35;69.78
70909;BME280;58554;52.006;5.926;2022-10-16T04:48:55;100241.88;;;14.33;69.77
70909;BME280;58554;52.006;5.926;2022-10-16T04:51:21;100242.00;;;14.32;69.80
70909;BME280;58554;52.006;5.926;2022-10-16T04:53:48;100230.66;;;14.30;69.78
70909;BME280;58554;52.006;5.926;2022-10-16T04:56:14;100245.03;;;14.27;69.90
70909;BME280;58554;52.006;5.926;2022-10-16T04:58:41;100241.66;;;14.25;69.96
70909;BME280;58554;52.006;5.926;2022-10-16T05:01:10;100252.53;;;14.22;69.97
70909;BME280;58554;52.006;5.926;2022-10-16T05:03:36;100248.06;;;14.23;70.22
70909;BME280;58554;52.006;5.926;2022-10-16T05:06:05;100265.59;;;14.25;70.34
70909;BME280;58554;52.006;5.926;2022-10-16T05:08:32;100265.00;;;14.22;70.09
70909;BME280;58554;52.006;5.926;2022-10-16T05:10:59;100268.59;;;14.21;70.20
70909;BME280;58554;52.006;5.926;2022-10-16T05:13:25;100258.13;;;14.19;70.18
70909;BME280;58554;52.006;5.926;2022-10-16T05:15:52;100259.69;;;14.22;70.34
70909;BME280;58554;52.006;5.926;2022-10-16T05:18:21;100264.00;;;14.23;70.31
70909;BME280;58554;52.006;5.926;2022-10-16T05:20:47;100271.25;;;14.21;70.10
70909;BME280;58554;52.006;5.926;2022-10-16T05:23:13;100273.09;;;14.20;70.20
70909;BME280;58554;52.006;5.926;2022-10-16T05:25:40;100274.91;;;14.20;70.14
70909;BME280;58554;52.006;5.926;2022-10-16T05:28:06;100280.22;;;14.20;70.12
70909;BME280;58554;52.006;5.926;2022-10-16T05:30:33;100282.03;;;14.19;70.14
70909;BME280;58554;52.006;5.926;2022-10-16T05:32:59;100278.41;;;14.20;70.13
70909;BME280;58554;52.006;5.926;2022-10-16T05:35:28;100285.66;;;14.18;70.28
70909;BME280;58554;52.006;5.926;2022-10-16T05:37:54;100282.88;;;14.20;70.07
70909;BME280;58554;52.006;5.926;2022-10-16T05:40:21;100294.34;;;14.20;70.07
70909;BME280;58554;52.006;5.926;2022-10-16T05:42:47;100302.34;;;14.20;70.15
70909;BME280;58554;52.006;5.926;2022-10-16T05:45:14;100313.69;;;14.22;70.10
70909;BME280;58554;52.006;5.926;2022-10-16T05:47:40;100310.09;;;14.23;69.99
70909;BME280;58554;52.006;5.926;2022-10-16T05:50:08;100311.88;;;14.23;69.99
70909;BME280;58554;52.006;5.926;2022-10-16T05:52:37;100319.00;;;14.22;70.16
70909;BME280;58554;52.006;5.926;2022-10-16T05:55:05;100316.63;;;14.19;69.91
70909;BME280;58554;52.006;5.926;2022-10-16T05:57:32;100323.97;;;14.15;70.00
70909;BME280;58554;52.006;5.926;2022-10-16T05:59:58;100326.75;;;14.14;70.00
70909;BME280;58554;52.006;5.926;2022-10-16T06:02:25;100337.75;;;14.09;70.13
70909;BME280;58554;52.006;5.926;2022-10-16T06:04:52;100343.34;;;14.06;70.08
70909;BME280;58554;52.006;5.926;2022-10-16T06:07:18;100343.81;;;14.00;70.04
70909;BME280;58554;52.006;5.926;2022-10-16T06:09:50;100349.47;;;13.95;69.92
70909;BME280;58554;52.006;5.926;2022-10-16T06:12:18;100354.31;;;13.90;69.98
70909;BME280;58554;52.006;5.926;2022-10-16T06:14:46;100352.13;;;13.84;70.00
70909;BME280;58554;52.006;5.926;2022-10-16T06:17:13;100360.84;;;13.75;69.94
70909;BME280;58554;52.006;5.926;2022-10-16T06:19:40;100356.09;;;13.67;70.22
70909;BME280;58554;52.006;5.926;2022-10-16T06:22:07;100356.94;;;13.56;70.38
70909;BME280;58554;52.006;5.926;2022-10-16T06:24:33;100357.56;;;13.47;70.55
70909;BME280;58554;52.006;5.926;2022-10-16T06:27:03;100359.03;;;13.40;70.66
70909;BME280;58554;52.006;5.926;2022-10-16T06:29:29;100363.97;;;13.33;70.90
70909;BME280;58554;52.006;5.926;2022-10-16T06:31:56;100366.94;;;13.29;70.99
70909;BME280;58554;52.006;5.926;2022-10-16T06:34:23;100369.94;;;13.24;71.17
70909;BME280;58554;52.006;5.926;2022-10-16T06:36:49;100364.13;;;13.19;71.33
70909;BME280;58554;52.006;5.926;2022-10-16T06:39:15;100375.06;;;13.14;71.41
70909;BME280;58554;52.006;5.926;2022-10-16T06:41:42;100382.66;;;13.08;71.78
70909;BME280;58554;52.006;5.926;2022-10-16T06:44:11;100393.72;;;13.02;71.65
70909;BME280;58554;52.006;5.926;2022-10-16T06:46:37;100390.47;;;12.98;71.88
70909;BME280;58554;52.006;5.926;2022-10-16T06:49:04;100397.69;;;12.96;71.90
70909;BME280;58554;52.006;5.926;2022-10-16T06:51:30;100400.56;;;12.93;72.18
70909;BME280;58554;52.006;5.926;2022-10-16T06:53:57;100410.53;;;12.89;72.30
70909;BME280;58554;52.006;5.926;2022-10-16T06:56:25;100410.78;;;12.86;72.38
70909;BME280;58554;52.006;5.926;2022-10-16T06:58:53;100413.78;;;12.82;72.54
70909;BME280;58554;52.006;5.926;2022-10-16T07:01:23;100425.34;;;12.81;72.91
70909;BME280;58554;52.006;5.926;2022-10-16T07:03:52;100422.06;;;12.77;72.87
70909;BME280;58554;52.006;5.926;2022-10-16T07:06:20;100429.28;;;12.75;73.04
70909;BME280;58554;52.006;5.926;2022-10-16T07:08:49;100430.25;;;12.74;73.18
70909;BME280;58554;52.006;5.926;2022-10-16T07:11:17;100437.47;;;12.72;73.37
70909;BME280;58554;52.006;5.926;2022-10-16T07:13:46;100436.63;;;12.71;73.35
70909;BME280;58554;52.006;5.926;2022-10-16T07:16:15;100452.44;;;12.73;73.60
70909;BME280;58554;52.006;5.926;2022-10-16T07:18:46;100454.22;;;12.72;73.50
70909;BME280;58554;52.006;5.926;2022-10-16T07:21:14;100458.69;;;12.72;73.74
70909;BME280;58554;52.006;5.926;2022-10-16T07:23:42;100469.28;;;12.72;73.77
70909;BME280;58554;52.006;5.926;2022-10-16T07:26:09;100464.72;;;12.74;73.83
70909;BME280;58554;52.006;5.926;2022-10-16T07:28:37;100476.19;;;12.74;73.81
70909;BME280;58554;52.006;5.926;2022-10-16T07:31:06;100486.94;;;12.73;73.99
70909;BME280;58554;52.006;5.926;2022-10-16T07:33:35;100489.44;;;12.74;74.10
70909;BME280;58554;52.006;5.926;2022-10-16T07:36:04;100493.81;;;12.75;74.16
70909;BME280;58554;52.006;5.926;2022-10-16T07:38:31;100495.50;;;12.76;74.32
70909;BME280;58554;52.006;5.926;2022-10-16T07:40:58;100500.69;;;12.78;74.32
70909;BME280;58554;52.006;5.926;2022-10-16T07:43:26;100505.91;;;12.80;74.34
70909;BME280;58554;52.006;5.926;2022-10-16T07:45:53;100509.41;;;12.80;74.38
70909;BME280;58554;52.006;5.926;2022-10-16T07:48:21;100510.97;;;12.83;74.46
70909;BME280;58554;52.006;5.926;2022-10-16T07:50:49;100521.41;;;12.86;74.45
70909;BME280;58554;52.006;5.926;2022-10-16T07:53:18;100519.59;;;12.86;74.61
70909;BME280;58554;52.006;5.926;2022-10-16T07:55:45;100516.81;;;12.88;74.52
70909;BME280;58554;52.006;5.926;2022-10-16T07:58:11;100524.66;;;12.89;74.73
70909;BME280;58554;52.006;5.926;2022-10-16T08:00:37;100520.81;;;12.93;74.68
70909;BME280;58554;52.006;5.926;2022-10-16T08:03:04;100530.28;;;12.97;74.84
70909;BME280;58554;52.006;5.926;2022-10-16T08:05:32;100527.31;;;13.02;74.79
70909;BME280;58554;52.006;5.926;2022-10-16T08:07:59;100527.72;;;13.09;74.87
70909;BME280;58554;52.006;5.926;2022-10-16T08:10:29;100528.13;;;13.15;74.98
70909;BME280;58554;52.006;5.926;2022-10-16T08:12:55;100532.75;;;13.25;74.97
70909;BME280;58554;52.006;5.926;2022-10-16T08:15:22;100532.09;;;13.34;74.65
70909;BME280;58554;52.006;5.926;2022-10-16T08:17:58;100536.84;;;13.42;74.82
70909;BME280;58554;52.006;5.926;2022-10-16T08:20:28;100531.81;;;13.50;74.67
70909;BME280;58554;52.006;5.926;2022-10-16T08:22:55;100549.53;;;13.62;74.53
70909;BME280;58554;52.006;5.926;2022-10-16T08:25:23;100541.97;;;13.69;74.42
70909;BME280;58554;52.006;5.926;2022-10-16T08:27:53;100544.06;;;13.76;74.40
70909;BME280;58554;52.006;5.926;2022-10-16T08:30:21;100549.88;;;13.82;74.17
70909;BME280;58554;52.006;5.926;2022-10-16T08:32:49;100552.31;;;13.85;74.02
70909;BME280;58554;52.006;5.926;2022-10-16T08:35:16;100561.25;;;13.84;73.94
70909;BME280;58554;52.006;5.926;2022-10-16T08:37:43;100562.19;;;13.83;74.06
70909;BME280;58554;52.006;5.926;2022-10-16T08:40:17;100568.59;;;13.80;73.92
70909;BME280;58554;52.006;5.926;2022-10-16T08:42:57;100561.56;;;13.79;73.87
70909;BME280;58554;52.006;5.926;2022-10-16T08:45:57;100562.56;;;13.78;73.99
70909;BME280;58554;52.006;5.926;2022-10-16T08:48:42;100563.63;;;13.75;73.96
70909;BME280;58554;52.006;5.926;2022-10-16T08:51:21;100563.72;;;13.74;73.91
70909;BME280;58554;52.006;5.926;2022-10-16T08:53:54;100569.88;;;13.74;73.83
70909;BME280;58554;52.006;5.926;2022-10-16T08:56:23;100582.22;;;13.75;74.04
70909;BME280;58554;52.006;5.926;2022-10-16T08:58:54;100585.97;;;13.73;73.99
70909;BME280;58554;52.006;5.926;2022-10-16T09:01:25;100599.25;;;13.73;74.00
70909;BME280;58554;52.006;5.926;2022-10-16T09:04:31;100598.38;;;13.72;74.16
70909;BME280;58554;52.006;5.926;2022-10-16T09:07:25;100594.88;;;13.72;73.91
70909;BME280;58554;52.006;5.926;2022-10-16T09:10:07;100599.38;;;13.71;74.03
70909;BME280;58554;52.006;5.926;2022-10-16T09:12:50;100603.84;;;13.71;73.94
70909;BME280;58554;52.006;5.926;2022-10-16T09:15:30;100609.88;;;13.73;73.90
70909;BME280;58554;52.006;5.926;2022-10-16T09:18:06;100610.72;;;13.73;74.10
70909;BME280;58554;52.006;5.926;2022-10-16T09:20:48;100618.59;;;13.75;74.08
70909;BME280;58554;52.006;5.926;2022-10-16T09:23:18;100616.66;;;13.77;73.91
70909;BME280;58554;52.006;5.926;2022-10-16T09:25:50;100618.25;;;13.80;73.84
70909;BME280;58554;52.006;5.926;2022-10-16T09:28:19;100622.59;;;13.81;73.82
70909;BME280;58554;52.006;5.926;2022-10-16T09:30:48;100616.09;;;13.85;73.85
70909;BME280;58554;52.006;5.926;2022-10-16T09:33:18;100629.28;;;13.86;73.69
70909;BME280;58554;52.006;5.926;2022-10-16T09:35:50;100638.81;;;13.89;73.79
70909;BME280;58554;52.006;5.926;2022-10-16T09:38:25;100633.31;;;13.92;73.70
70909;BME280;58554;52.006;5.926;2022-10-16T09:40:54;100636.56;;;13.95;73.60
70909;BME280;58554;52.006;5.926;2022-10-16T09:43:24;100636.47;;;13.97;73.47
70909;BME280;58554;52.006;5.926;2022-10-16T09:45:57;100642.50;;;13.99;73.46
70909;BME280;58554;52.006;5.926;2022-10-16T09:48:28;100643.34;;;14.00;73.56
70909;BME280;58554;52.006;5.926;2022-10-16T09:51:04;100648.66;;;14.00;73.55
70909;BME280;58554;52.006;5.926;2022-10-16T09:53:40;100654.72;;;14.02;73.60
70909;BME280;58554;52.006;5.926;2022-10-16T09:56:10;100647.47;;;14.04;73.54
70909;BME280;58554;52.006;5.926;2022-10-16T09:58:38;100650.88;;;14.06;73.30
70909;BME280;58554;52.006;5.926;2022-10-16T10:01:14;100652.47;;;14.08;73.48
70909;BME280;58554;52.006;5.926;2022-10-16T10:03:42;100654.91;;;14.11;73.53
70909;BME280;58554;52.006;5.926;2022-10-16T10:06:18;100652.88;;;14.15;73.45
70909;BME280;58554;52.006;5.926;2022-10-16T10:09:01;100664.00;;;14.20;73.56
70909;BME280;58554;52.006;5.926;2022-10-16T10:11:38;100664.38;;;14.27;73.34
70909;BME280;58554;52.006;5.926;2022-10-16T10:14:16;100665.13;;;14.29;73.22
70909;BME280;58554;52.006;5.926;2022-10-16T10:16:49;100668.41;;;14.32;73.20
70909;BME280;58554;52.006;5.926;2022-10-16T10:19:18;100658.41;;;14.36;73.13
70909;BME280;58554;52.006;5.926;2022-10-16T10:21:45;100660.81;;;14.39;73.24
70909;BME280;58554;52.006;5.926;2022-10-16T10:24:13;100664.09;;;14.43;73.17
70909;BME280;58554;52.006;5.926;2022-10-16T10:26:47;100664.72;;;14.46;73.10
70909;BME280;58554;52.006;5.926;2022-10-16T10:29:34;100672.47;;;14.49;73.14
70909;BME280;58554;52.006;5.926;2022-10-16T10:32:21;100682.53;;;14.57;73.05
70909;BME280;58554;52.006;5.926;2022-10-16T10:35:14;100673.09;;;14.64;73.00
70909;BME280;58554;52.006;5.926;2022-10-16T10:38:00;100677.13;;;14.70;72.61
70909;BME280;58554;52.006;5.926;2022-10-16T10:40:45;100684.78;;;14.74;72.63
70909;BME280;58554;52.006;5.926;2022-10-16T10:43:26;100678.88;;;14.82;72.32
70909;BME280;58554;52.006;5.926;2022-10-16T10:46:08;100679.38;;;14.87;71.97
70909;BME280;58554;52.006;5.926;2022-10-16T10:48:54;100678.91;;;14.93;71.73
70909;BME280;58554;52.006;5.926;2022-10-16T10:51:42;100678.19;;;15.03;71.54
70909;BME280;58554;52.006;5.926;2022-10-16T10:54:22;100677.47;;;15.12;71.14
70909;BME280;58554;52.006;5.926;2022-10-16T10:56:58;100687.44;;;15.21;71.03
70909;BME280;58554;52.006;5.926;2022-10-16T10:59:52;100686.56;;;15.32;70.61
70909;BME280;58554;52.006;5.926;2022-10-16T11:02:34;100687.41;;;15.44;70.40
70909;BME280;58554;52.006;5.926;2022-10-16T11:08:12;100702.31;;;15.69;69.91
70909;BME280;58554;52.006;5.926;2022-10-16T11:10:48;100693.56;;;15.78;69.27
70909;BME280;58554;52.006;5.926;2022-10-16T11:13:30;100700.28;;;15.84;68.64
70909;BME280;58554;52.006;5.926;2022-10-16T11:16:06;100696.50;;;15.86;68.48
70909;BME280;58554;52.006;5.926;2022-10-16T11:18:47;100697.22;;;15.88;68.48
70909;BME280;58554;52.006;5.926;2022-10-16T11:21:23;100707.91;;;15.88;68.35
70909;BME280;58554;52.006;5.926;2022-10-16T11:23:57;100714.19;;;15.87;67.97
70909;BME280;58554;52.006;5.926;2022-10-16T11:26:34;100708.13;;;15.85;67.79
70909;BME280;58554;52.006;5.926;2022-10-16T11:29:12;100716.28;;;15.84;67.73
70909;BME280;58554;52.006;5.926;2022-10-16T11:31:48;100718.22;;;15.82;67.22
70909;BME280;58554;52.006;5.926;2022-10-16T11:34:25;100720.88;;;15.82;67.33
70909;BME280;58554;52.006;5.926;2022-10-16T11:37:05;100726.56;;;15.88;67.23
70909;BME280;58554;52.006;5.926;2022-10-16T11:39:38;100720.72;;;15.94;67.17
70909;BME280;58554;52.006;5.926;2022-10-16T11:42:11;100721.69;;;16.05;66.91
70909;BME280;58554;52.006;5.926;2022-10-16T11:44:51;100712.56;;;16.07;66.35
70909;BME280;58554;52.006;5.926;2022-10-16T11:47:31;100722.88;;;16.12;66.27
70909;BME280;58554;52.006;5.926;2022-10-16T11:50:03;100724.19;;;16.17;66.25
70909;BME280;58554;52.006;5.926;2022-10-16T11:52:50;100721.03;;;16.24;65.72
70909;BME280;58554;52.006;5.926;2022-10-16T11:55:24;100717.25;;;16.26;65.82
70909;BME280;58554;52.006;5.926;2022-10-16T11:58:01;100720.19;;;16.23;65.46
70909;BME280;58554;52.006;5.926;2022-10-16T12:00:36;100718.88;;;16.17;65.62
70909;BME280;58554;52.006;5.926;2022-10-16T12:03:17;100735.38;;;16.11;65.43
70909;BME280;58554;52.006;5.926;2022-10-16T12:05:55;100740.09;;;16.08;65.57
70909;BME280;58554;52.006;5.926;2022-10-16T12:08:36;100735.59;;;16.08;65.60
70909;BME280;58554;52.006;5.926;2022-10-16T12:11:08;100733.53;;;16.12;65.42
70909;BME280;58554;52.006;5.926;2022-10-16T12:13:46;100736.56;;;16.18;65.11
70909;BME280;58554;52.006;5.926;2022-10-16T12:16:22;100729.03;;;16.24;64.31
70909;BME280;58554;52.006;5.926;2022-10-16T12:19:07;100740.31;;;16.27;64.08
70909;BME280;58554;52.006;5.926;2022-10-16T12:21:37;100741.88;;;16.30;64.51
70909;BME280;58554;52.006;5.926;2022-10-16T12:24:21;100735.31;;;16.34;63.99
70909;BME280;58554;52.006;5.926;2022-10-16T12:26:54;100743.31;;;16.34;63.99
70909;BME280;58554;52.006;5.926;2022-10-16T12:29:28;100743.19;;;16.35;63.98
70909;BME280;58554;52.006;5.926;2022-10-16T12:32:00;100746.72;;;16.36;63.69
70909;BME280;58554;52.006;5.926;2022-10-16T12:34:30;100743.19;;;16.35;63.77
70909;BME280;58554;52.006;5.926;2022-10-16T12:37:10;100740.66;;;16.34;63.64
70909;BME280;58554;52.006;5.926;2022-10-16T12:39:43;100753.00;;;16.35;63.83
70909;BME280;58554;52.006;5.926;2022-10-16T12:42:31;100756.50;;;16.47;63.51
70909;BME280;58554;52.006;5.926;2022-10-16T12:45:00;100745.56;;;16.50;63.55
70909;BME280;58554;52.006;5.926;2022-10-16T12:47:37;100748.44;;;16.58;63.36
70909;BME280;58554;52.006;5.926;2022-10-16T12:50:30;100750.47;;;16.66;63.08
70909;BME280;58554;52.006;5.926;2022-10-16T12:52:59;100755.31;;;16.72;62.99
70909;BME280;58554;52.006;5.926;2022-10-16T12:55:45;100754.91;;;16.76;62.52
70909;BME280;58554;52.006;5.926;2022-10-16T12:58:34;100759.28;;;16.77;62.66
70909;BME280;58554;52.006;5.926;2022-10-16T13:01:24;100760.00;;;16.79;62.70
70909;BME280;58554;52.006;5.926;2022-10-16T13:04:17;100753.56;;;16.82;62.63
70909;BME280;58554;52.006;5.926;2022-10-16T13:06:59;100751.75;;;16.83;62.54
70909;BME280;58554;52.006;5.926;2022-10-16T13:09:51;100756.22;;;16.82;62.42
70909;BME280;58554;52.006;5.926;2022-10-16T13:12:44;100750.66;;;16.85;62.39
70909;BME280;58554;52.006;5.926;2022-10-16T13:15:33;100749.69;;;16.86;62.29
70909;BME280;58554;52.006;5.926;2022-10-16T13:18:16;100752.47;;;16.85;62.13